Time;durP1;ratioP1;P1;durP2;ratioP2;P2;SDS_P1;SDS_P2;PMS_P1;PMS_P2;Temp;Humidity;BMP_temperature;BMP_pressure;BME280_temperature;BME280_humidity;BME280_pressure;Samples;Min_cycle;Max_cycle;Signal;HPM_P1;HPM_P2
2023/03/22 00:00:27;;;;;;;28.87;16.20;;;8.20;99.90;;;;;;4158288;28;20049;-63
2023/03/22 00:02:29;;;;;;;32.10;16.27;;;8.20;99.90;;;;;;4160753;28;20041;-63
2023/03/22 00:04:31;;;;;;;15.60;10.43;;;8.10;99.90;;;;;;4161451;28;20095;-62
2023/03/22 00:06:32;;;;;;;16.43;10.27;;;8.10;99.90;;;;;;4161451;28;20096;-62
2023/03/22 00:08:33;;;;;;;17.70;10.63;;;8.10;99.90;;;;;;4161397;28;20087;-62
2023/03/22 00:10:36;;;;;;;17.37;10.27;;;8.00;99.90;;;;;;4161716;28;20068;-62
2023/03/22 00:12:38;;;;;;;15.70;9.50;;;8.00;99.90;;;;;;4160997;28;20014;-63
2023/03/22 00:14:40;;;;;;;17.07;10.20;;;8.00;99.90;;;;;;4161477;28;20034;-64
2023/03/22 00:16:41;;;;;;;15.27;10.33;;;7.90;99.90;;;;;;4158842;28;20134;-62
2023/03/22 00:18:42;;;;;;;17.13;9.83;;;7.90;99.90;;;;;;4161861;28;20033;-64
2023/03/22 00:20:48;;;;;;;11.43;8.20;;;8.00;99.90;;;;;;4160553;28;20041;-63
2023/03/22 00:22:49;;;;;;;14.77;10.03;;;8.00;99.90;;;;;;4161822;28;20091;-63
2023/03/22 00:24:51;;;;;;;14.87;10.50;;;7.90;99.90;;;;;;4158955;28;20045;-66
2023/03/22 00:26:52;;;;;;;18.10;10.03;;;7.90;99.90;;;;;;4161809;28;20029;-62
2023/03/22 00:28:53;;;;;;;20.23;10.10;;;8.00;99.90;;;;;;4160503;28;20107;-64
2023/03/22 00:30:59;;;;;;;14.60;10.20;;;8.00;99.90;;;;;;4161706;28;20083;-63
2023/03/22 00:33:00;;;;;;;15.20;10.23;;;8.00;99.90;;;;;;4155203;28;20025;-63
2023/03/22 00:35:02;;;;;;;15.87;11.03;;;8.00;99.90;;;;;;4145435;28;20079;-67
2023/03/22 00:37:03;;;;;;;12.40;8.87;;;8.00;99.90;;;;;;4155964;28;20055;-63
2023/03/22 00:39:04;;;;;;;16.50;9.67;;;8.00;99.90;;;;;;4161039;28;20406;-63
2023/03/22 00:41:12;;;;;;;14.73;10.20;;;7.90;99.90;;;;;;4160993;28;20029;-63
2023/03/22 00:43:15;;;;;;;18.10;11.77;;;7.90;99.90;;;;;;4161132;28;20029;-62
2023/03/22 00:45:16;;;;;;;25.63;15.10;;;7.80;99.90;;;;;;4153418;28;20029;-62
2023/03/22 00:47:17;;;;;;;23.77;16.00;;;7.80;99.90;;;;;;4144278;28;20088;-64
2023/03/22 00:49:18;;;;;;;28.43;16.97;;;7.80;99.90;;;;;;4145109;28;20568;-64
2023/03/22 00:51:19;;;;;;;29.60;17.13;;;7.80;99.90;;;;;;4151539;28;20152;-64
2023/03/22 00:53:20;;;;;;;28.30;16.57;;;7.80;99.90;;;;;;4161492;28;20025;-61
2023/03/22 00:55:22;;;;;;;28.47;16.00;;;7.90;99.90;;;;;;4160278;28;20096;-64
2023/03/22 00:57:23;;;;;;;30.47;17.07;;;7.90;99.90;;;;;;4161607;28;20064;-62
2023/03/22 00:59:24;;;;;;;29.87;17.23;;;7.90;99.90;;;;;;4158961;28;20080;-62
2023/03/22 01:01:25;;;;;;;25.37;16.37;;;7.90;99.90;;;;;;4146913;28;20042;-62
2023/03/22 01:03:26;;;;;;;27.53;16.37;;;7.80;99.90;;;;;;4146037;28;20857;-62
2023/03/22 01:05:33;;;;;;;31.93;17.07;;;7.80;99.90;;;;;;4160599;28;20444;-62
2023/03/22 01:07:37;;;;;;;28.20;15.83;;;7.80;99.90;;;;;;4160142;28;20511;-62
2023/03/22 01:09:38;;;;;;;29.80;15.47;;;7.80;99.90;;;;;;4161374;28;20779;-63
2023/03/22 01:11:41;;;;;;;26.77;16.63;;;7.80;99.90;;;;;;4160566;28;20030;-62
2023/03/22 01:13:42;;;;;;;26.67;16.63;;;7.80;99.90;;;;;;4160573;28;20119;-63
2023/03/22 01:15:43;;;;;;;25.73;16.30;;;7.80;99.90;;;;;;4148859;28;20035;-61
2023/03/22 01:17:44;;;;;;;27.67;17.07;;;7.80;99.90;;;;;;4143920;28;20057;-62
2023/03/22 01:19:45;;;;;;;25.83;15.20;;;7.80;99.90;;;;;;4144685;28;20037;-65
2023/03/22 01:21:47;;;;;;;26.27;16.20;;;7.80;99.90;;;;;;4144003;28;20409;-61
2023/03/22 01:23:48;;;;;;;30.23;17.77;;;7.80;99.90;;;;;;4145168;28;20124;-61
2023/03/22 01:25:49;;;;;;;27.73;16.53;;;7.80;99.90;;;;;;4144891;28;20026;-61
2023/03/22 01:27:51;;;;;;;27.20;17.10;;;7.80;99.90;;;;;;4145057;28;20072;-63
2023/03/22 01:29:52;;;;;;;32.50;16.73;;;7.90;99.90;;;;;;4143627;28;20501;-67
2023/03/22 01:31:53;;;;;;;29.73;16.07;;;7.80;99.90;;;;;;4146117;28;20077;-62
2023/03/22 01:33:54;;;;;;;32.57;17.30;;;7.90;99.90;;;;;;4143743;28;20434;-62
2023/03/22 01:35:56;;;;;;;29.97;16.60;;;7.90;99.90;;;;;;4144863;28;20038;-62
2023/03/22 01:37:57;;;;;;;27.33;16.60;;;7.90;99.90;;;;;;4143450;28;20100;-62
2023/03/22 01:39:58;;;;;;;24.27;15.83;;;7.90;99.90;;;;;;4145977;28;20486;-61
2023/03/22 01:42:01;;;;;;;28.57;16.97;;;7.80;99.90;;;;;;4146590;28;20049;-62
2023/03/22 01:44:29;;;;;;;25.50;16.20;;;7.90;99.90;;;;;;4147273;28;20057;-65
2023/03/22 01:46:31;;;;;;;31.87;16.27;;;7.80;99.90;;;;;;4146699;28;20034;-61
2023/03/22 01:48:44;;;;;;;27.37;15.50;;;7.80;99.90;;;;;;4151261;28;20021;-62
2023/03/22 01:50:57;;;;;;;22.90;15.53;;;7.90;99.90;;;;;;4146657;28;20069;-66
2023/03/22 01:53:04;;;;;;;27.37;16.50;;;7.80;99.90;;;;;;4147001;28;20100;-62
2023/03/22 01:55:08;;;;;;;25.03;15.20;;;7.80;99.90;;;;;;4148840;28;20042;-64
2023/03/22 01:57:09;;;;;;;27.70;16.00;;;7.80;99.90;;;;;;4163041;28;20037;-63
2023/03/22 01:59:13;;;;;;;28.53;15.53;;;7.80;99.90;;;;;;4161085;28;20034;-61
2023/03/22 02:01:14;;;;;;;26.20;16.10;;;7.70;99.90;;;;;;4163495;28;20029;-62
2023/03/22 02:03:25;;;;;;;27.77;16.33;;;7.70;99.90;;;;;;4163778;28;20033;-66
2023/03/22 02:05:27;;;;;;;30.00;16.33;;;7.60;99.90;;;;;;4153954;28;20026;-62
2023/03/22 02:07:30;;;;;;;25.90;16.50;;;7.50;99.90;;;;;;4155230;28;20125;-62
2023/03/22 02:09:32;;;;;;;27.73;16.67;;;7.50;99.90;;;;;;4162885;28;20159;-66
2023/03/22 02:11:40;;;;;;;24.97;15.40;;;7.50;99.90;;;;;;4152288;28;20096;-61
2023/03/22 02:13:50;;;;;;;29.60;16.20;;;7.50;99.90;;;;;;4149595;28;20046;-64
2023/03/22 02:16:15;;;;;;;25.77;15.37;;;7.40;99.90;;;;;;4147212;28;20439;-61
2023/03/22 02:18:30;;;;;;;25.80;15.87;;;7.40;99.90;;;;;;4153371;28;20183;-63
2023/03/22 02:21:04;;;;;;;29.27;15.47;;;7.30;99.90;;;;;;4162947;28;20103;-62
2023/03/22 02:23:39;;;;;;;25.87;14.33;;;7.30;99.90;;;;;;4163145;28;20568;-66
2023/03/22 02:25:57;;;;;;;30.57;18.77;;;7.20;99.90;;;;;;4160974;28;20519;-62
2023/03/22 02:28:25;;;;;;;29.43;18.70;;;7.10;99.90;;;;;;4163693;28;20033;-64
2023/03/22 02:31:00;;;;;;;30.03;19.03;;;7.00;99.90;;;;;;4152449;28;20068;-65
2023/03/22 02:33:13;;;;;;;28.47;19.27;;;7.00;99.90;;;;;;4147134;28;20026;-61
2023/03/22 02:35:40;;;;;;;32.87;19.20;;;7.00;99.90;;;;;;4145734;28;20050;-62
2023/03/22 02:38:01;;;;;;;24.20;15.63;;;7.00;99.90;;;;;;4140179;28;20049;-61
2023/03/22 02:40:14;;;;;;;27.30;16.70;;;7.00;99.90;;;;;;4159784;28;20038;-61
2023/03/22 02:42:37;;;;;;;26.87;16.63;;;7.00;99.90;;;;;;4162282;28;20038;-62
2023/03/22 02:44:44;;;;;;;25.83;16.10;;;7.00;99.90;;;;;;4151318;28;20045;-61
2023/03/22 02:47:06;;;;;;;25.27;15.63;;;7.00;99.90;;;;;;4162324;28;20041;-61
2023/03/22 02:49:36;;;;;;;31.53;17.13;;;7.10;99.90;;;;;;4147484;28;20037;-64
2023/03/22 02:51:47;;;;;;;23.50;16.00;;;7.10;99.90;;;;;;4143655;28;20041;-61
2023/03/22 02:53:55;;;;;;;22.23;13.80;;;7.10;99.90;;;;;;4149478;28;20037;-62
2023/03/22 02:56:08;;;;;;;22.43;15.10;;;7.00;99.90;;;;;;4161957;28;20041;-61
2023/03/22 02:58:11;;;;;;;27.23;14.63;;;7.00;99.90;;;;;;4163167;28;20493;-61
2023/03/22 03:00:16;;;;;;;21.20;14.33;;;7.00;99.90;;;;;;4162006;28;20030;-64
2023/03/22 03:02:18;;;;;;;25.10;15.47;;;7.10;99.90;;;;;;4162678;28;20088;-63
2023/03/22 03:04:33;;;;;;;27.77;15.30;;;7.20;99.90;;;;;;4161994;28;20034;-61
2023/03/22 03:06:38;;;;;;;22.10;14.60;;;7.20;99.90;;;;;;4162421;28;20501;-68
2023/03/22 03:08:41;;;;;;;24.60;13.97;;;7.30;99.90;;;;;;4156699;28;20088;-62
2023/03/22 03:10:43;;;;;;;21.87;14.47;;;7.20;99.90;;;;;;4153102;28;20018;-63
2023/03/22 03:12:45;;;;;;;26.73;16.90;;;7.20;99.90;;;;;;4145742;28;20034;-63
2023/03/22 03:14:46;;;;;;;25.87;16.07;;;7.20;99.90;;;;;;4145854;28;20100;-61
2023/03/22 03:17:05;;;;;;;27.50;16.37;;;7.30;99.90;;;;;;4145974;28;20645;-60
2023/03/22 03:19:31;;;;;;;28.50;16.63;;;7.30;99.90;;;;;;4145931;28;20029;-63
2023/03/22 03:21:49;;;;;;;27.97;16.53;;;7.30;99.90;;;;;;4145275;28;20030;-67
2023/03/22 03:24:01;;;;;;;34.90;19.00;;;7.30;99.90;;;;;;4147229;28;20076;-62
2023/03/22 03:26:13;;;;;;;35.93;19.43;;;7.30;99.90;;;;;;4145132;28;20030;-62
2023/03/22 03:28:21;;;;;;;25.37;17.90;;;7.30;99.90;;;;;;4146231;28;20049;-68
2023/03/22 03:30:37;;;;;;;30.70;18.73;;;7.30;99.90;;;;;;4143297;28;20092;-65
2023/03/22 03:32:47;;;;;;;26.97;18.37;;;7.30;99.90;;;;;;4146209;28;20030;-63
2023/03/22 03:34:51;;;;;;;33.08;17.80;;;7.30;99.90;;;;;;4153775;28;20053;-63
2023/03/22 03:36:59;;;;;;;31.47;16.80;;;7.30;99.90;;;;;;4162585;28;20083;-61
2023/03/22 03:39:01;;;;;;;25.60;15.70;;;7.30;99.90;;;;;;4159882;28;20456;-63
2023/03/22 03:41:15;;;;;;;27.00;15.23;;;7.20;99.90;;;;;;4147280;28;20442;-64
2023/03/22 03:43:18;;;;;;;21.10;14.73;;;7.10;99.90;;;;;;4144940;28;20347;-67
2023/03/22 03:45:21;;;;;;;23.43;14.40;;;7.00;99.90;;;;;;4145378;28;20069;-62
2023/03/22 03:47:23;;;;;;;21.47;15.20;;;6.90;99.90;;;;;;4145232;28;20029;-62
2023/03/22 03:49:25;;;;;;;22.83;15.07;;;6.80;99.90;;;;;;4145493;28;20021;-64
2023/03/22 03:51:27;;;;;;;23.70;15.03;;;6.80;99.90;;;;;;4145267;28;20010;-63
2023/03/22 03:53:29;;;;;;;29.77;15.80;;;6.80;99.90;;;;;;4145117;28;20022;-63
2023/03/22 03:55:31;;;;;;;25.60;16.33;;;6.80;99.90;;;;;;4145504;28;20495;-60
2023/03/22 03:57:32;;;;;;;27.03;16.53;;;6.80;99.90;;;;;;4142975;28;20462;-61
2023/03/22 03:59:33;;;;;;;31.10;17.60;;;6.80;99.90;;;;;;4145849;28;20025;-62
2023/03/22 04:01:35;;;;;;;30.93;18.70;;;6.80;99.90;;;;;;4144694;28;20042;-61
2023/03/22 04:03:36;;;;;;;25.77;14.97;;;6.80;99.90;;;;;;4147472;28;20029;-59
2023/03/22 04:05:37;;;;;;;31.50;16.70;;;6.70;99.90;;;;;;4153477;28;20485;-62
2023/03/22 04:07:39;;;;;;;30.07;16.60;;;6.80;99.90;;;;;;4153559;28;20041;-61
2023/03/22 04:09:41;;;;;;;28.33;17.43;;;6.70;99.90;;;;;;4157126;28;20037;-62
2023/03/22 04:11:42;;;;;;;24.07;15.17;;;6.70;99.90;;;;;;4162096;28;20038;-64
2023/03/22 04:13:43;;;;;;;26.50;17.17;;;6.70;99.90;;;;;;4160888;28;20067;-60
2023/03/22 04:15:44;;;;;;;25.73;15.80;;;6.80;99.90;;;;;;4158288;28;20057;-66
2023/03/22 04:17:46;;;;;;;26.03;16.97;;;6.80;99.90;;;;;;4155872;28;20115;-63
2023/03/22 04:19:48;;;;;;;31.17;17.07;;;6.80;99.90;;;;;;4160606;28;20460;-62
2023/03/22 04:21:51;;;;;;;45.57;25.77;;;6.80;99.90;;;;;;4153995;28;20096;-60
2023/03/22 04:23:54;;;;;;;32.80;19.17;;;6.80;99.90;;;;;;4144760;28;20034;-61
2023/03/22 04:25:58;;;;;;;32.67;19.23;;;6.80;99.90;;;;;;4144907;28;20081;-61
2023/03/22 04:27:59;;;;;;;30.97;17.90;;;6.80;99.90;;;;;;4144356;28;20033;-61
2023/03/22 04:30:00;;;;;;;33.03;19.63;;;6.80;99.90;;;;;;4145045;28;20034;-61
2023/03/22 04:32:02;;;;;;;29.20;18.20;;;6.80;99.90;;;;;;4144145;28;20080;-61
2023/03/22 04:34:04;;;;;;;35.17;17.80;;;6.80;99.90;;;;;;4145017;28;20030;-61
2023/03/22 04:36:09;;;;;;;34.20;18.03;;;6.80;99.90;;;;;;4143504;28;20091;-58
2023/03/22 04:38:10;;;;;;;33.77;16.13;;;6.80;99.90;;;;;;4144244;28;20777;-62
2023/03/22 04:40:15;;;;;;;27.10;15.53;;;6.80;99.90;;;;;;4144049;28;20030;-61
2023/03/22 04:42:16;;;;;;;30.87;15.67;;;6.80;99.90;;;;;;4147810;28;20084;-61
2023/03/22 04:44:17;;;;;;;25.80;14.73;;;6.80;99.90;;;;;;4145047;28;20433;-65
2023/03/22 04:46:20;;;;;;;23.90;15.00;;;6.80;99.90;;;;;;4147228;28;20030;-64
2023/03/22 04:48:22;;;;;;;22.00;13.77;;;6.80;99.90;;;;;;4157654;28;20475;-64
2023/03/22 04:50:23;;;;;;;23.37;13.13;;;6.80;99.90;;;;;;4155057;28;20092;-62
2023/03/22 04:52:25;;;;;;;24.30;13.33;;;6.70;99.90;;;;;;4160510;28;20535;-61
2023/03/22 04:54:26;;;;;;;23.90;13.63;;;6.70;99.90;;;;;;4161003;28;20531;-62
2023/03/22 04:56:27;;;;;;;22.60;12.97;;;6.70;99.90;;;;;;4152935;28;20107;-61
2023/03/22 04:58:29;;;;;;;21.73;13.23;;;6.70;99.90;;;;;;4160600;28;20037;-63
2023/03/22 05:00:30;;;;;;;19.20;13.03;;;6.70;99.90;;;;;;4160703;28;20037;-62
2023/03/22 05:02:31;;;;;;;24.23;11.93;;;6.70;99.90;;;;;;4159869;28;20049;-61
2023/03/22 05:04:32;;;;;;;26.97;13.40;;;6.70;99.90;;;;;;4150228;28;20092;-63
2023/03/22 05:06:33;;;;;;;20.27;12.13;;;6.70;99.90;;;;;;4142823;28;20123;-62
2023/03/22 05:08:35;;;;;;;20.97;13.60;;;6.70;99.90;;;;;;4145198;28;20437;-62
2023/03/22 05:10:39;;;;;;;19.93;12.20;;;6.80;99.90;;;;;;4145725;28;20165;-65
2023/03/22 05:12:40;;;;;;;19.17;12.30;;;6.80;99.90;;;;;;4154927;28;20571;-61
2023/03/22 05:14:41;;;;;;;24.00;12.70;;;6.80;99.90;;;;;;4155304;28;20093;-60
2023/03/22 05:16:42;;;;;;;23.77;15.03;;;6.80;99.90;;;;;;4146084;28;20046;-63
2023/03/22 05:18:44;;;;;;;30.77;17.40;;;6.90;99.90;;;;;;4147432;28;20037;-62
2023/03/22 05:20:46;;;;;;;32.90;20.40;;;6.90;99.90;;;;;;4146925;28;20038;-64
2023/03/22 05:22:49;;;;;;;29.87;17.57;;;6.90;99.90;;;;;;4146788;28;20092;-62
2023/03/22 05:24:50;;;;;;;21.43;13.57;;;7.00;99.90;;;;;;4147726;28;20104;-62
2023/03/22 05:26:54;;;;;;;21.30;12.90;;;7.00;99.90;;;;;;4147290;28;20471;-64
2023/03/22 05:28:56;;;;;;;28.10;15.33;;;7.10;99.90;;;;;;4146781;28;20458;-62
2023/03/22 05:30:57;;;;;;;28.07;15.53;;;7.20;99.90;;;;;;4147334;28;20088;-66
2023/03/22 05:33:01;;;;;;;22.30;14.17;;;7.30;99.90;;;;;;4150524;28;20364;-63
2023/03/22 05:35:03;;;;;;;23.50;13.97;;;7.50;99.90;;;;;;4161564;28;20058;-62
2023/03/22 05:37:05;;;;;;;24.27;13.97;;;7.60;99.90;;;;;;4146135;28;20042;-63
2023/03/22 05:39:06;;;;;;;20.63;13.30;;;7.80;99.90;;;;;;4147348;28;20037;-64
2023/03/22 05:41:09;;;;;;;20.40;12.70;;;8.10;99.90;;;;;;4157276;28;20390;-64
2023/03/22 05:43:10;;;;;;;22.80;13.00;;;8.50;99.90;;;;;;4163528;28;20501;-62
2023/03/22 05:45:11;;;;;;;20.00;12.37;;;9.00;99.90;;;;;;4162473;28;20037;-63
2023/03/22 05:47:13;;;;;;;18.63;12.30;;;9.50;99.90;;;;;;4153379;28;20038;-63
2023/03/22 05:49:14;;;;;;;21.77;12.33;;;10.10;99.90;;;;;;4145345;28;20046;-63
2023/03/22 05:51:18;;;;;;;19.70;12.10;;;10.70;99.90;;;;;;4146816;28;20504;-65
2023/03/22 05:53:19;;;;;;;18.90;10.60;;;11.00;99.90;;;;;;4145565;28;20076;-68
2023/03/22 05:55:22;;;;;;;18.80;12.40;;;11.50;99.90;;;;;;4159749;28;20103;-63
2023/03/22 05:57:23;;;;;;;22.90;12.37;;;12.10;99.90;;;;;;4157381;28;20084;-66
2023/03/22 05:59:24;;;;;;;30.53;12.30;;;12.60;99.90;;;;;;4146759;28;20038;-65
2023/03/22 06:01:25;;;;;;;27.33;12.40;;;13.20;99.90;;;;;;4146521;28;20026;-66
2023/03/22 06:03:27;;;;;;;23.33;12.40;;;13.60;99.90;;;;;;4146704;28;20478;-65
2023/03/22 06:05:30;;;;;;;21.53;11.80;;;13.70;99.90;;;;;;4146706;28;20084;-65
2023/03/22 06:07:31;;;;;;;22.27;12.60;;;13.60;99.90;;;;;;4146087;28;20030;-67
2023/03/22 06:09:33;;;;;;;28.97;14.47;;;13.40;99.90;;;;;;4147059;28;20037;-64
2023/03/22 06:11:34;;;;;;;25.30;13.40;;;13.50;99.90;;;;;;4146245;28;20096;-64
2023/03/22 06:13:36;;;;;;;24.60;12.23;;;13.60;99.90;;;;;;4147131;28;20077;-64
2023/03/22 06:15:37;;;;;;;30.77;14.07;;;14.00;99.90;;;;;;4145851;28;20045;-66
2023/03/22 06:17:38;;;;;;;18.97;13.17;;;14.40;99.90;;;;;;4146848;28;20100;-67
2023/03/22 06:19:39;;;;;;;27.73;15.00;;;14.80;99.90;;;;;;4146036;28;20062;-65
2023/03/22 06:21:41;;;;;;;32.23;14.20;;;15.20;99.90;;;;;;4146927;28;20529;-68
2023/03/22 06:23:42;;;;;;;24.93;14.17;;;15.20;99.90;;;;;;4146026;28;20029;-65
2023/03/22 06:25:44;;;;;;;30.67;14.70;;;15.40;99.90;;;;;;4146605;28;20037;-69
2023/03/22 06:27:45;;;;;;;30.58;13.90;;;15.40;99.90;;;;;;4145522;28;20088;-66
2023/03/22 06:29:49;;;;;;;26.00;11.93;;;15.40;99.90;;;;;;4146633;28;20037;-66
2023/03/22 06:31:50;;;;;;;26.15;12.25;;;15.40;99.90;;;;;;4145611;28;20175;-64
2023/03/22 06:33:51;;;;;;;23.58;10.73;;;15.80;99.90;;;;;;4146021;28;20363;-65
2023/03/22 06:35:52;;;;;;;22.10;12.88;;;16.10;99.90;;;;;;4145948;28;20033;-63
2023/03/22 06:37:54;;;;;;;30.13;12.57;;;16.50;99.90;;;;;;4145923;28;20061;-68
2023/03/22 06:39:55;;;;;;;27.33;13.25;;;16.30;99.90;;;;;;4146858;28;20088;-64
2023/03/22 06:41:56;;;;;;;20.90;11.90;;;15.90;99.90;;;;;;4145294;28;20034;-69
2023/03/22 06:43:57;;;;;;;23.95;13.50;;;15.40;99.90;;;;;;4146756;28;20758;-65
2023/03/22 06:45:58;;;;;;;23.15;12.30;;;14.70;99.90;;;;;;4145286;28;20038;-64
2023/03/22 06:48:00;;;;;;;19.08;10.98;;;14.40;99.90;;;;;;4146549;28;20037;-65
2023/03/22 06:50:01;;;;;;;25.08;12.30;;;14.40;99.90;;;;;;4145393;28;20034;-66
2023/03/22 06:52:02;;;;;;;28.95;13.43;;;14.00;99.90;;;;;;4146086;28;20972;-67
2023/03/22 06:54:03;;;;;;;29.63;13.20;;;13.60;99.90;;;;;;4144884;28;20084;-69
2023/03/22 06:56:05;;;;;;;40.42;15.50;;;13.20;99.90;;;;;;4145763;28;20563;-67
2023/03/22 06:58:06;;;;;;;34.33;15.70;;;12.90;99.90;;;;;;4145416;28;20429;-65
2023/03/22 07:00:08;;;;;;;50.20;16.67;;;12.70;99.90;;;;;;4145738;28;20042;-69
2023/03/22 07:02:11;;;;;;;62.43;17.63;;;12.30;99.90;;;;;;4145688;28;20030;-66
2023/03/22 07:04:13;;;;;;;60.53;19.63;;;12.00;99.90;;;;;;4145465;28;20069;-64
2023/03/22 07:06:14;;;;;;;64.53;19.87;;;11.90;99.90;;;;;;4145087;28;20084;-65
2023/03/22 07:08:15;;;;;;;32.60;14.90;;;12.00;99.90;;;;;;4145599;28;20140;-66
2023/03/22 07:10:16;;;;;;;32.60;14.13;;;12.00;99.90;;;;;;4146219;28;20088;-64
2023/03/22 07:12:17;;;;;;;31.63;15.10;;;12.10;99.90;;;;;;4144846;28;20057;-68
2023/03/22 07:14:19;;;;;;;37.20;12.80;;;12.40;99.90;;;;;;4146461;28;20088;-65
2023/03/22 07:16:20;;;;;;;40.97;15.63;;;12.70;99.90;;;;;;4145046;28;20141;-65
2023/03/22 07:18:22;;;;;;;40.03;14.50;;;12.90;99.90;;;;;;4146182;28;20042;-65
2023/03/22 07:20:23;;;;;;;36.13;14.40;;;12.80;99.90;;;;;;4144881;28;20088;-67
2023/03/22 07:22:24;;;;;;;38.33;15.20;;;12.50;99.90;;;;;;4144735;28;20034;-65
2023/03/22 07:24:25;;;;;;;40.83;15.17;;;12.60;99.90;;;;;;4144935;28;20826;-64
2023/03/22 07:26:27;;;;;;;45.87;17.00;;;12.50;99.90;;;;;;4146151;28;20387;-65
2023/03/22 07:28:28;;;;;;;46.20;16.93;;;12.30;99.90;;;;;;4144369;28;20179;-64
2023/03/22 07:30:29;;;;;;;54.30;15.87;;;12.50;99.90;;;;;;4145505;28;20041;-65
2023/03/22 07:32:30;;;;;;;43.63;15.57;;;12.50;99.90;;;;;;4145178;28;20173;-65
2023/03/22 07:34:31;;;;;;;28.13;13.03;;;12.40;99.90;;;;;;4145285;28;20037;-65
2023/03/22 07:36:32;;;;;;;31.67;11.97;;;12.40;99.90;;;;;;4144862;28;20095;-64
2023/03/22 07:38:34;;;;;;;23.13;11.07;;;12.30;99.90;;;;;;4144483;28;20076;-63
2023/03/22 07:40:36;;;;;;;24.93;11.27;;;12.40;99.90;;;;;;4145784;28;20030;-65
2023/03/22 07:42:37;;;;;;;24.90;9.20;;;12.40;99.90;;;;;;4143331;28;20469;-65
2023/03/22 07:44:38;;;;;;;18.57;8.57;;;12.50;99.90;;;;;;4145938;28;20026;-65
2023/03/22 07:46:39;;;;;;;12.23;7.80;;;12.80;99.90;;;;;;4144663;28;20422;-65
2023/03/22 07:48:40;;;;;;;18.00;8.37;;;13.00;99.90;;;;;;4145791;28;20018;-65
2023/03/22 07:50:41;;;;;;;16.23;8.63;;;13.00;99.90;;;;;;4142499;28;20034;-65
2023/03/22 07:52:43;;;;;;;10.97;7.20;;;13.10;99.90;;;;;;4145683;28;20034;-65
2023/03/22 07:54:44;;;;;;;9.57;5.33;;;13.50;99.90;;;;;;4144146;28;20551;-65
2023/03/22 07:56:46;;;;;;;9.17;5.50;;;13.50;99.90;;;;;;4145353;28;20053;-66
2023/03/22 07:58:48;;;;;;;12.30;6.00;;;13.20;99.90;;;;;;4144394;28;20029;-66
2023/03/22 08:00:49;;;;;;;12.37;6.47;;;13.20;99.90;;;;;;4145463;28;20080;-64
2023/03/22 08:02:50;;;;;;;12.80;5.80;;;13.20;99.90;;;;;;4144532;28;20502;-68
2023/03/22 08:04:53;;;;;;;12.73;5.53;;;13.10;99.90;;;;;;4144984;28;20022;-66
2023/03/22 08:06:57;;;;;;;8.10;5.10;;;13.10;99.90;;;;;;4144283;28;20053;-63
2023/03/22 08:08:58;;;;;;;12.17;7.53;;;13.20;99.90;;;;;;4144914;28;20038;-65
2023/03/22 08:11:00;;;;;;;12.53;6.83;;;13.10;99.90;;;;;;4145048;28;20038;-65
2023/03/22 08:13:01;;;;;;;8.90;6.67;;;12.90;99.90;;;;;;4143950;28;20034;-65
2023/03/22 08:15:03;;;;;;;18.03;7.67;;;12.90;99.90;;;;;;4143939;28;20430;-65
2023/03/22 08:17:04;;;;;;;15.60;8.20;;;12.90;99.90;;;;;;4144190;28;20438;-64
2023/03/22 08:19:06;;;;;;;13.50;7.90;;;13.00;99.90;;;;;;4144831;28;20072;-64
2023/03/22 08:21:07;;;;;;;14.63;7.43;;;12.90;99.90;;;;;;4143941;28;20029;-67
2023/03/22 08:23:13;;;;;;;12.03;8.07;;;13.10;99.90;;;;;;4145097;28;20084;-68
2023/03/22 08:25:14;;;;;;;9.57;7.10;;;13.20;99.90;;;;;;4144144;28;20030;-66
2023/03/22 08:27:16;;;;;;;14.07;6.87;;;13.30;99.90;;;;;;4145181;28;20114;-65
2023/03/22 08:29:18;;;;;;;11.43;7.03;;;13.30;99.90;;;;;;4143525;28;20034;-65
2023/03/22 08:31:19;;;;;;;15.73;8.27;;;13.30;99.90;;;;;;4144831;28;20532;-69
2023/03/22 08:33:22;;;;;;;17.33;8.07;;;13.20;99.90;;;;;;4143983;28;20417;-68
2023/03/22 08:35:23;;;;;;;12.87;7.40;;;13.30;99.90;;;;;;4144517;28;20088;-69
2023/03/22 08:37:24;;;;;;;9.87;6.83;;;13.20;99.90;;;;;;4142303;28;20058;-66
2023/03/22 08:39:26;;;;;;;17.13;8.10;;;13.10;99.90;;;;;;4144648;28;20076;-63
2023/03/22 08:41:27;;;;;;;10.53;7.07;;;13.10;99.90;;;;;;4144675;28;20429;-65
2023/03/22 08:43:28;;;;;;;11.80;6.73;;;13.10;99.90;;;;;;4144128;28;20044;-65
2023/03/22 08:45:29;;;;;;;13.80;6.37;;;13.00;99.90;;;;;;4144742;28;20096;-64
2023/03/22 08:47:31;;;;;;;12.63;6.20;;;13.00;99.90;;;;;;4144147;28;20093;-66
2023/03/22 08:49:32;;;;;;;9.93;6.40;;;13.00;99.90;;;;;;4149393;28;20076;-65
2023/03/22 08:51:33;;;;;;;9.93;5.87;;;13.10;99.90;;;;;;4149361;28;20080;-65
2023/03/22 08:53:34;;;;;;;11.60;7.50;;;13.00;99.90;;;;;;4150308;28;20030;-68
2023/03/22 08:55:36;;;;;;;11.20;6.40;;;13.10;99.90;;;;;;4149247;28;20121;-65
2023/03/22 08:57:37;;;;;;;11.57;6.20;;;13.20;99.90;;;;;;4150124;28;20100;-67
2023/03/22 08:59:38;;;;;;;12.53;5.33;;;13.30;99.90;;;;;;4146782;28;20041;-64
2023/03/22 09:01:39;;;;;;;13.97;5.87;;;13.40;99.90;;;;;;4150311;28;20069;-65
2023/03/22 09:03:41;;;;;;;12.67;5.47;;;13.50;99.90;;;;;;4149100;28;20541;-65
2023/03/22 09:05:42;;;;;;;7.23;5.23;;;13.70;99.90;;;;;;4149729;28;20107;-66
2023/03/22 09:07:43;;;;;;;10.93;5.50;;;13.70;99.90;;;;;;4148966;28;20041;-68
2023/03/22 09:09:45;;;;;;;13.33;4.73;;;13.80;99.90;;;;;;4150336;28;20104;-69
2023/03/22 09:11:47;;;;;;;7.70;4.37;;;13.80;99.90;;;;;;4149210;28;20041;-65
2023/03/22 09:13:50;;;;;;;6.83;4.17;;;13.80;99.90;;;;;;4149184;28;20426;-67
2023/03/22 09:15:51;;;;;;;8.20;4.97;;;13.80;99.90;;;;;;4149903;28;20030;-67
2023/03/22 09:17:53;;;;;;;7.07;4.60;;;13.90;99.90;;;;;;4146959;28;20108;-66
2023/03/22 09:19:54;;;;;;;7.03;4.60;;;13.80;99.90;;;;;;4150219;28;20021;-65
2023/03/22 09:21:55;;;;;;;7.17;5.27;;;13.80;99.90;;;;;;4149110;28;20056;-69
2023/03/22 09:23:56;;;;;;;6.10;5.20;;;13.80;99.90;;;;;;4150322;28;20530;-67
2023/03/22 09:26:02;;;;;;;6.40;4.80;;;13.80;99.90;;;;;;4148688;28;20042;-64
2023/03/22 09:28:03;;;;;;;13.80;5.00;;;13.60;99.90;;;;;;4150120;28;20057;-65
2023/03/22 09:30:05;;;;;;;9.83;5.20;;;13.60;99.90;;;;;;4149165;28;20038;-66
2023/03/22 09:32:06;;;;;;;8.47;5.07;;;13.60;99.90;;;;;;4148638;28;20030;-64
2023/03/22 09:34:08;;;;;;;4.77;3.80;;;13.70;99.90;;;;;;4149120;28;20068;-65
2023/03/22 09:36:10;;;;;;;7.53;4.20;;;13.90;99.90;;;;;;4149081;28;20050;-64
2023/03/22 09:38:12;;;;;;;5.03;3.60;;;13.80;99.90;;;;;;4149164;28;20045;-64
2023/03/22 09:40:14;;;;;;;5.17;3.67;;;13.80;99.90;;;;;;4147676;28;20034;-66
2023/03/22 09:42:38;;;;;;;6.50;3.80;;;13.80;99.90;;;;;;4149375;28;20045;-67
2023/03/22 09:44:42;;;;;;;6.53;4.50;;;13.90;99.90;;;;;;4149261;28;20465;-65
2023/03/22 09:46:49;;;;;;;4.20;3.73;;;13.90;99.90;;;;;;4149498;28;20038;-64
2023/03/22 09:48:51;;;;;;;6.13;4.30;;;13.90;99.90;;;;;;4147118;28;20056;-64
2023/03/22 09:50:54;;;;;;;4.60;3.80;;;14.10;99.90;;;;;;4149993;28;20022;-64
2023/03/22 09:52:55;;;;;;;4.03;3.53;;;14.10;99.90;;;;;;4148415;28;20041;-65
2023/03/22 09:54:58;;;;;;;7.80;3.60;;;14.20;99.90;;;;;;4149641;28;20038;-65
2023/03/22 09:57:08;;;;;;;4.07;3.33;;;14.40;99.90;;;;;;4148799;28;20053;-67
2023/03/22 09:59:20;;;;;;;5.57;3.25;;;14.30;99.90;;;;;;4149905;28;20030;-66
2023/03/22 10:01:47;;;;;;;4.67;3.70;;;14.30;99.90;;;;;;4143463;28;20096;-65
2023/03/22 10:03:59;;;;;;;5.63;2.80;;;14.40;99.90;;;;;;4147257;28;20034;-65
2023/03/22 10:06:20;;;;;;;3.10;2.80;;;14.50;99.90;;;;;;4144232;28;20103;-66
2023/03/22 10:08:43;;;;;;;3.30;2.47;;;14.50;99.90;;;;;;4147159;28;20501;-65
2023/03/22 10:10:44;;;;;;;2.80;2.60;;;14.70;99.90;;;;;;4146392;28;20661;-66
2023/03/22 10:12:51;;;;;;;4.00;2.90;;;14.80;99.90;;;;;;4147168;28;20038;-65
2023/03/22 10:15:10;;;;;;;3.70;2.85;;;15.10;99.90;;;;;;4146122;28;20429;-66
2023/03/22 10:17:15;;;;;;;3.55;2.90;;;15.30;99.90;;;;;;4146758;28;20046;-67
2023/03/22 10:19:30;;;;;;;3.55;2.83;;;15.50;99.90;;;;;;4145533;28;20030;-66
2023/03/22 10:21:32;;;;;;;3.83;2.42;;;15.60;99.90;;;;;;4146909;28;20021;-65
2023/03/22 10:23:58;;;;;;;2.75;2.53;;;15.70;99.90;;;;;;4145417;28;20042;-64
2023/03/22 10:26:00;;;;;;;4.50;3.10;;;15.60;99.90;;;;;;4146980;28;20076;-67
2023/03/22 10:28:09;;;;;;;3.00;2.70;;;15.60;99.90;;;;;;4145324;28;20453;-68
2023/03/22 10:30:26;;;;;;;5.55;2.63;;;15.50;99.90;;;;;;4146515;28;20096;-65
2023/03/22 10:32:50;;;;;;;2.85;2.38;;;15.40;99.90;;;;;;4145855;28;20029;-67
2023/03/22 10:34:51;;;;;;;3.22;2.92;;;15.20;99.90;;;;;;4146702;28;20442;-65
2023/03/22 10:36:54;;;;;;;4.45;2.47;;;15.20;99.90;;;;;;4145497;28;20049;-67